Terminal Aerodrome Forecast
Issued by NWS Indianapolis, IN

Home | Current Version | Previous Version | Text Only | Print | Product List | Glossary On
Versions: 1 2 3 4 5 6 7 8 9 10 11 12 13 14 15 16 17 18 19 20 21 22 23 24 25 26 27 28
000
FTUS43 KIND 132000 AAA
TAFIND
TAF AMD
KIND 132030Z 1321/1424 26010KT P6SM BKN025
      TEMPO 1321/1324 29010KT SCT025
     FM140000 27005KT P6SM FEW030 SCT250
     FM140800 29004KT 5SM BR BCFG SCT250
     FM141400 27008KT P6SM SCT040 BKN250=

USA.gov is the U.S. government's official web portal to all federal, state and local government web resources and services.